sensor_id;sensor_type;location;lat;lon;timestamp;temperature;humidity
53675;DHT22;39574;50.534;8.500;2022-12-08T00:03:14;4.1;99.9
53675;DHT22;39574;50.534;8.500;2022-12-08T00:12:42;4.1;99.9
53675;DHT22;39574;50.534;8.500;2022-12-08T00:17:54;4.0;99.9
53675;DHT22;39574;50.534;8.500;2022-12-08T00:23:09;4.0;99.9
53675;DHT22;39574;50.534;8.500;2022-12-08T00:32:48;4.0;99.9
53675;DHT22;39574;50.534;8.500;2022-12-08T00:37:51;4.0;99.9
53675;DHT22;39574;50.534;8.500;2022-12-08T00:43:05;4.0;99.9
53675;DHT22;39574;50.534;8.500;2022-12-08T00:52:29;4.0;99.9
53675;DHT22;39574;50.534;8.500;2022-12-08T00:57:30;4.0;99.9
53675;DHT22;39574;50.534;8.500;2022-12-08T01:02:42;4.0;99.9
53675;DHT22;39574;50.534;8.500;2022-12-08T01:07:44;3.9;99.9
53675;DHT22;39574;50.534;8.500;2022-12-08T01:12:55;3.9;99.9
53675;DHT22;39574;50.534;8.500;2022-12-08T01:22:21;3.9;99.9
53675;DHT22;39574;50.534;8.500;2022-12-08T01:27:33;3.9;99.9
53675;DHT22;39574;50.534;8.500;2022-12-08T01:32:35;3.9;99.9
53675;DHT22;39574;50.534;8.500;2022-12-08T01:37:36;3.9;99.9
53675;DHT22;39574;50.534;8.500;2022-12-08T01:42:46;3.9;99.9
53675;DHT22;39574;50.534;8.500;2022-12-08T01:47:50;3.8;99.9
53675;DHT22;39574;50.534;8.500;2022-12-08T01:57:15;3.9;99.9
53675;DHT22;39574;50.534;8.500;2022-12-08T02:02:14;3.9;99.9
53675;DHT22;39574;50.534;8.500;2022-12-08T02:07:23;3.9;99.9
53675;DHT22;39574;50.534;8.500;2022-12-08T02:12:37;3.9;99.9
53675;DHT22;39574;50.534;8.500;2022-12-08T02:17:44;3.9;99.9
53675;DHT22;39574;50.534;8.500;2022-12-08T02:27:05;3.9;99.9
53675;DHT22;39574;50.534;8.500;2022-12-08T02:32:07;3.9;99.9
53675;DHT22;39574;50.534;8.500;2022-12-08T02:37:04;3.9;99.9
53675;DHT22;39574;50.534;8.500;2022-12-08T02:42:16;3.9;99.9
53675;DHT22;39574;50.534;8.500;2022-12-08T02:47:27;3.9;99.9
53675;DHT22;39574;50.534;8.500;2022-12-08T02:52:38;3.9;99.9
53675;DHT22;39574;50.534;8.500;2022-12-08T02:57:30;4.0;99.9
53675;DHT22;39574;50.534;8.500;2022-12-08T03:06:56;3.9;99.9
53675;DHT22;39574;50.534;8.500;2022-12-08T03:12:05;4.0;99.9
53675;DHT22;39574;50.534;8.500;2022-12-08T03:17:08;4.0;99.9
53675;DHT22;39574;50.534;8.500;2022-12-08T03:22:21;4.0;99.9
53675;DHT22;39574;50.534;8.500;2022-12-08T03:31:48;4.0;99.9
53675;DHT22;39574;50.534;8.500;2022-12-08T03:36:48;3.9;99.9
53675;DHT22;39574;50.534;8.500;2022-12-08T03:41:59;3.8;99.9
53675;DHT22;39574;50.534;8.500;2022-12-08T03:47:12;3.8;99.9
53675;DHT22;39574;50.534;8.500;2022-12-08T03:52:16;3.8;99.9
53675;DHT22;39574;50.534;8.500;2022-12-08T04:01:40;3.8;99.9
53675;DHT22;39574;50.534;8.500;2022-12-08T04:06:54;3.8;99.9
53675;DHT22;39574;50.534;8.500;2022-12-08T04:12:05;3.9;99.9
53675;DHT22;39574;50.534;8.500;2022-12-08T04:21:34;3.9;99.9
53675;DHT22;39574;50.534;8.500;2022-12-08T04:26:45;3.9;99.9
53675;DHT22;39574;50.534;8.500;2022-12-08T04:31:47;3.9;99.9
53675;DHT22;39574;50.534;8.500;2022-12-08T04:36:58;3.8;99.9
53675;DHT22;39574;50.534;8.500;2022-12-08T04:41:59;3.8;99.9
53675;DHT22;39574;50.534;8.500;2022-12-08T04:46:59;3.8;99.9
53675;DHT22;39574;50.534;8.500;2022-12-08T04:56:25;3.8;99.9
53675;DHT22;39574;50.534;8.500;2022-12-08T05:01:35;3.8;99.9
53675;DHT22;39574;50.534;8.500;2022-12-08T05:06:41;3.8;99.9
53675;DHT22;39574;50.534;8.500;2022-12-08T05:11:49;3.8;99.9
53675;DHT22;39574;50.534;8.500;2022-12-08T05:21:19;3.8;99.9
53675;DHT22;39574;50.534;8.500;2022-12-08T05:26:29;3.8;99.9
53675;DHT22;39574;50.534;8.500;2022-12-08T05:31:31;3.8;99.9
53675;DHT22;39574;50.534;8.500;2022-12-08T05:36:32;3.8;99.9
53675;DHT22;39574;50.534;8.500;2022-12-08T05:41:40;3.8;99.9
53675;DHT22;39574;50.534;8.500;2022-12-08T05:46:45;3.8;99.9
53675;DHT22;39574;50.534;8.500;2022-12-08T05:55:49;3.9;99.9
53675;DHT22;39574;50.534;8.500;2022-12-08T06:01:16;3.9;99.9
53675;DHT22;39574;50.534;8.500;2022-12-08T06:06:19;3.9;99.9
53675;DHT22;39574;50.534;8.500;2022-12-08T06:11:21;3.9;99.9
53675;DHT22;39574;50.534;8.500;2022-12-08T06:16:33;3.9;99.9
53675;DHT22;39574;50.534;8.500;2022-12-08T06:21:33;3.9;99.9
53675;DHT22;39574;50.534;8.500;2022-12-08T06:30:59;3.8;99.9
53675;DHT22;39574;50.534;8.500;2022-12-08T06:36:07;3.8;99.9
53675;DHT22;39574;50.534;8.500;2022-12-08T06:41:09;3.8;99.9
53675;DHT22;39574;50.534;8.500;2022-12-08T06:46:11;3.8;99.9
53675;DHT22;39574;50.534;8.500;2022-12-08T06:51:13;3.8;99.9
53675;DHT22;39574;50.534;8.500;2022-12-08T06:56:22;3.8;99.9
53675;DHT22;39574;50.534;8.500;2022-12-08T07:01:23;3.8;99.9
53675;DHT22;39574;50.534;8.500;2022-12-08T07:11:06;3.8;99.9
53675;DHT22;39574;50.534;8.500;2022-12-08T07:25:49;3.8;99.9
53675;DHT22;39574;50.534;8.500;2022-12-08T07:30:56;3.8;99.9
53675;DHT22;39574;50.534;8.500;2022-12-08T07:36:10;3.8;99.9
53675;DHT22;39574;50.534;8.500;2022-12-08T07:45:51;3.8;99.9
53675;DHT22;39574;50.534;8.500;2022-12-08T07:50:58;3.9;99.9
53675;DHT22;39574;50.534;8.500;2022-12-08T07:55:53;3.9;99.9
53675;DHT22;39574;50.534;8.500;2022-12-08T08:01:06;3.9;99.9
53675;DHT22;39574;50.534;8.500;2022-12-08T08:10:43;3.9;99.9
53675;DHT22;39574;50.534;8.500;2022-12-08T08:15:45;4.0;99.9
53675;DHT22;39574;50.534;8.500;2022-12-08T08:20:59;4.0;99.9
53675;DHT22;39574;50.534;8.500;2022-12-08T08:30:27;4.0;99.9
53675;DHT22;39574;50.534;8.500;2022-12-08T08:35:29;4.1;99.9
53675;DHT22;39574;50.534;8.500;2022-12-08T08:40:41;4.1;99.9
53675;DHT22;39574;50.534;8.500;2022-12-08T08:45:55;4.1;99.9
53675;DHT22;39574;50.534;8.500;2022-12-08T08:55:30;4.1;99.9
53675;DHT22;39574;50.534;8.500;2022-12-08T09:00:35;4.2;99.9
53675;DHT22;39574;50.534;8.500;2022-12-08T09:05:48;4.2;99.9
53675;DHT22;39574;50.534;8.500;2022-12-08T09:10:52;4.2;99.9
53675;DHT22;39574;50.534;8.500;2022-12-08T09:20:14;4.2;99.9
53675;DHT22;39574;50.534;8.500;2022-12-08T09:25:26;4.3;99.9
53675;DHT22;39574;50.534;8.500;2022-12-08T09:30:27;4.3;99.9
53675;DHT22;39574;50.534;8.500;2022-12-08T09:35:41;4.3;99.9
53675;DHT22;39574;50.534;8.500;2022-12-08T09:45:18;4.3;99.9
53675;DHT22;39574;50.534;8.500;2022-12-08T09:50:21;4.3;99.9
53675;DHT22;39574;50.534;8.500;2022-12-08T09:55:28;4.3;99.9
53675;DHT22;39574;50.534;8.500;2022-12-08T10:00:32;4.3;99.9
53675;DHT22;39574;50.534;8.500;2022-12-08T10:09:40;4.3;99.9
53675;DHT22;39574;50.534;8.500;2022-12-08T10:15:18;4.4;99.9
53675;DHT22;39574;50.534;8.500;2022-12-08T10:20:14;4.5;99.9
53675;DHT22;39574;50.534;8.500;2022-12-08T10:25:16;4.5;99.9
53675;DHT22;39574;50.534;8.500;2022-12-08T10:30:24;4.4;99.9
53675;DHT22;39574;50.534;8.500;2022-12-08T10:39:44;4.4;99.9
53675;DHT22;39574;50.534;8.500;2022-12-08T10:44:53;4.4;99.9
53675;DHT22;39574;50.534;8.500;2022-12-08T10:50:05;4.5;99.9
53675;DHT22;39574;50.534;8.500;2022-12-08T10:55:01;4.5;99.9
53675;DHT22;39574;50.534;8.500;2022-12-08T11:00:15;4.6;99.9
53675;DHT22;39574;50.534;8.500;2022-12-08T11:05:17;4.6;99.9
53675;DHT22;39574;50.534;8.500;2022-12-08T11:14:56;4.6;99.9
53675;DHT22;39574;50.534;8.500;2022-12-08T11:20:00;4.8;99.9
53675;DHT22;39574;50.534;8.500;2022-12-08T11:25:17;4.9;99.9
53675;DHT22;39574;50.534;8.500;2022-12-08T11:34:31;5.0;99.9
53675;DHT22;39574;50.534;8.500;2022-12-08T11:39:49;4.9;99.9
53675;DHT22;39574;50.534;8.500;2022-12-08T11:44:54;4.9;99.9
53675;DHT22;39574;50.534;8.500;2022-12-08T11:50:10;4.7;99.9
53675;DHT22;39574;50.534;8.500;2022-12-08T11:55:12;4.7;99.9
53675;DHT22;39574;50.534;8.500;2022-12-08T12:04:30;4.8;99.9
53675;DHT22;39574;50.534;8.500;2022-12-08T12:09:47;4.9;99.9
53675;DHT22;39574;50.534;8.500;2022-12-08T12:15:09;5.0;99.9
53675;DHT22;39574;50.534;8.500;2022-12-08T12:19:59;5.0;99.9
53675;DHT22;39574;50.534;8.500;2022-12-08T12:29:35;4.9;99.9
53675;DHT22;39574;50.534;8.500;2022-12-08T12:34:49;4.8;99.9
53675;DHT22;39574;50.534;8.500;2022-12-08T12:39:53;4.8;99.9
53675;DHT22;39574;50.534;8.500;2022-12-08T12:49:51;4.8;99.9
53675;DHT22;39574;50.534;8.500;2022-12-08T12:54:27;4.8;99.9
53675;DHT22;39574;50.534;8.500;2022-12-08T12:59:43;4.9;99.9
53675;DHT22;39574;50.534;8.500;2022-12-08T13:04:51;5.0;99.9
53675;DHT22;39574;50.534;8.500;2022-12-08T13:14:22;4.9;99.9
53675;DHT22;39574;50.534;8.500;2022-12-08T13:19:23;4.8;99.9
53675;DHT22;39574;50.534;8.500;2022-12-08T13:24:29;4.7;99.9
53675;DHT22;39574;50.534;8.500;2022-12-08T13:29:40;4.4;99.9
53675;DHT22;39574;50.534;8.500;2022-12-08T13:39:18;4.3;99.9
53675;DHT22;39574;50.534;8.500;2022-12-08T13:44:20;4.2;99.9
53675;DHT22;39574;50.534;8.500;2022-12-08T13:49:29;4.1;99.9
53675;DHT22;39574;50.534;8.500;2022-12-08T13:54:34;4.0;99.9
53675;DHT22;39574;50.534;8.500;2022-12-08T14:03:58;3.9;99.9
53675;DHT22;39574;50.534;8.500;2022-12-08T14:09:16;3.8;99.9
53675;DHT22;39574;50.534;8.500;2022-12-08T14:14:20;3.8;99.9
53675;DHT22;39574;50.534;8.500;2022-12-08T14:19:25;3.7;99.9
53675;DHT22;39574;50.534;8.500;2022-12-08T14:28:38;3.9;99.9
53675;DHT22;39574;50.534;8.500;2022-12-08T14:34:01;3.9;99.9
53675;DHT22;39574;50.534;8.500;2022-12-08T14:39:16;4.0;99.9
53675;DHT22;39574;50.534;8.500;2022-12-08T14:44:21;4.1;99.9
53675;DHT22;39574;50.534;8.500;2022-12-08T14:53:36;4.2;99.9
53675;DHT22;39574;50.534;8.500;2022-12-08T14:58:40;4.3;99.9
53675;DHT22;39574;50.534;8.500;2022-12-08T15:03:44;4.4;99.9
53675;DHT22;39574;50.534;8.500;2022-12-08T15:08:56;4.4;99.9
53675;DHT22;39574;50.534;8.500;2022-12-08T15:14:23;4.5;99.9
53675;DHT22;39574;50.534;8.500;2022-12-08T15:19:14;4.4;99.9
53675;DHT22;39574;50.534;8.500;2022-12-08T15:28:35;4.5;99.9
53675;DHT22;39574;50.534;8.500;2022-12-08T15:33:46;4.5;99.9
53675;DHT22;39574;50.534;8.500;2022-12-08T15:39:00;4.5;99.9
53675;DHT22;39574;50.534;8.500;2022-12-08T15:44:02;4.5;99.9
53675;DHT22;39574;50.534;8.500;2022-12-08T15:53:40;4.4;99.9
53675;DHT22;39574;50.534;8.500;2022-12-08T15:58:55;4.4;99.9
53675;DHT22;39574;50.534;8.500;2022-12-08T16:08:24;4.3;99.9
53675;DHT22;39574;50.534;8.500;2022-12-08T16:13:36;4.2;99.9
53675;DHT22;39574;50.534;8.500;2022-12-08T16:18:48;4.1;99.9
53675;DHT22;39574;50.534;8.500;2022-12-08T16:28:30;3.8;99.9
53675;DHT22;39574;50.534;8.500;2022-12-08T16:33:34;3.6;99.9
53675;DHT22;39574;50.534;8.500;2022-12-08T16:43:47;3.3;99.9
53675;DHT22;39574;50.534;8.500;2022-12-08T16:52:55;3.4;99.9
53675;DHT22;39574;50.534;8.500;2022-12-08T16:58:11;3.6;99.9
53675;DHT22;39574;50.534;8.500;2022-12-08T17:03:21;3.9;99.9
53675;DHT22;39574;50.534;8.500;2022-12-08T17:08:25;4.0;99.9
53675;DHT22;39574;50.534;8.500;2022-12-08T17:13:38;3.9;99.9
53675;DHT22;39574;50.534;8.500;2022-12-08T17:22:56;3.9;99.9
53675;DHT22;39574;50.534;8.500;2022-12-08T17:28:01;3.9;99.9
53675;DHT22;39574;50.534;8.500;2022-12-08T17:33:04;4.0;99.9
53675;DHT22;39574;50.534;8.500;2022-12-08T17:38:19;4.1;99.9
53675;DHT22;39574;50.534;8.500;2022-12-08T17:43:28;4.1;99.9
53675;DHT22;39574;50.534;8.500;2022-12-08T17:52:34;4.0;99.9
53675;DHT22;39574;50.534;8.500;2022-12-08T17:57:36;4.0;99.9
53675;DHT22;39574;50.534;8.500;2022-12-08T18:02:55;4.0;99.9
53675;DHT22;39574;50.534;8.500;2022-12-08T18:08:01;4.0;99.9
53675;DHT22;39574;50.534;8.500;2022-12-08T18:13:04;3.9;99.9
53675;DHT22;39574;50.534;8.500;2022-12-08T18:18:04;3.8;99.9
53675;DHT22;39574;50.534;8.500;2022-12-08T18:23:05;3.8;99.9
53675;DHT22;39574;50.534;8.500;2022-12-08T18:28:19;3.9;99.9
53675;DHT22;39574;50.534;8.500;2022-12-08T18:37:45;3.9;99.9
53675;DHT22;39574;50.534;8.500;2022-12-08T18:43:00;3.9;99.9
53675;DHT22;39574;50.534;8.500;2022-12-08T18:48:13;3.9;99.9
53675;DHT22;39574;50.534;8.500;2022-12-08T18:57:37;3.8;99.9
53675;DHT22;39574;50.534;8.500;2022-12-08T19:02:49;3.9;99.9
53675;DHT22;39574;50.534;8.500;2022-12-08T19:07:54;3.9;99.9
53675;DHT22;39574;50.534;8.500;2022-12-08T19:13:06;3.8;99.9
53675;DHT22;39574;50.534;8.500;2022-12-08T19:22:31;3.9;99.9
53675;DHT22;39574;50.534;8.500;2022-12-08T19:27:31;4.0;99.9
53675;DHT22;39574;50.534;8.500;2022-12-08T19:32:48;4.0;99.9
53675;DHT22;39574;50.534;8.500;2022-12-08T19:37:56;4.1;99.9
53675;DHT22;39574;50.534;8.500;2022-12-08T19:42:59;4.1;99.9
53675;DHT22;39574;50.534;8.500;2022-12-08T19:52:24;3.9;99.9
53675;DHT22;39574;50.534;8.500;2022-12-08T19:57:38;3.8;99.9
53675;DHT22;39574;50.534;8.500;2022-12-08T20:02:48;3.7;99.9
53675;DHT22;39574;50.534;8.500;2022-12-08T20:07:52;3.5;99.9
53675;DHT22;39574;50.534;8.500;2022-12-08T20:17:17;3.5;99.9
53675;DHT22;39574;50.534;8.500;2022-12-08T20:22:26;3.4;99.9
53675;DHT22;39574;50.534;8.500;2022-12-08T20:27:27;3.4;99.9
53675;DHT22;39574;50.534;8.500;2022-12-08T20:32:29;3.5;99.9
53675;DHT22;39574;50.534;8.500;2022-12-08T20:37:42;3.4;99.9
53675;DHT22;39574;50.534;8.500;2022-12-08T20:47:01;3.5;99.9
53675;DHT22;39574;50.534;8.500;2022-12-08T20:52:22;3.6;99.9
53675;DHT22;39574;50.534;8.500;2022-12-08T20:57:24;3.6;99.9
53675;DHT22;39574;50.534;8.500;2022-12-08T21:02:38;3.7;99.9
53675;DHT22;39574;50.534;8.500;2022-12-08T21:12:03;3.8;99.9
53675;DHT22;39574;50.534;8.500;2022-12-08T21:17:04;3.9;99.9
53675;DHT22;39574;50.534;8.500;2022-12-08T21:22:11;3.9;99.9
53675;DHT22;39574;50.534;8.500;2022-12-08T21:27:17;3.9;99.9
53675;DHT22;39574;50.534;8.500;2022-12-08T21:32:28;3.9;99.9
53675;DHT22;39574;50.534;8.500;2022-12-08T21:42:06;3.8;99.9
53675;DHT22;39574;50.534;8.500;2022-12-08T21:47:11;3.7;99.9
53675;DHT22;39574;50.534;8.500;2022-12-08T21:52:25;3.6;99.9
53675;DHT22;39574;50.534;8.500;2022-12-08T22:01:32;3.6;99.9
53675;DHT22;39574;50.534;8.500;2022-12-08T22:06:48;3.7;99.9
53675;DHT22;39574;50.534;8.500;2022-12-08T22:11:59;3.6;99.9
53675;DHT22;39574;50.534;8.500;2022-12-08T22:17:02;3.6;99.9
53675;DHT22;39574;50.534;8.500;2022-12-08T22:22:13;3.5;99.9
53675;DHT22;39574;50.534;8.500;2022-12-08T22:31:42;3.4;99.9
53675;DHT22;39574;50.534;8.500;2022-12-08T22:36:43;3.4;99.9
53675;DHT22;39574;50.534;8.500;2022-12-08T22:41:50;3.4;99.9
53675;DHT22;39574;50.534;8.500;2022-12-08T22:47:03;3.5;99.9
53675;DHT22;39574;50.534;8.500;2022-12-08T22:52:08;3.6;99.9
53675;DHT22;39574;50.534;8.500;2022-12-08T23:01:40;3.6;99.9
53675;DHT22;39574;50.534;8.500;2022-12-08T23:06:43;3.7;99.9
53675;DHT22;39574;50.534;8.500;2022-12-08T23:11:48;3.8;99.9
53675;DHT22;39574;50.534;8.500;2022-12-08T23:16:59;3.7;99.9
53675;DHT22;39574;50.534;8.500;2022-12-08T23:21:59;3.7;99.9
53675;DHT22;39574;50.534;8.500;2022-12-08T23:31:37;3.6;99.9
53675;DHT22;39574;50.534;8.500;2022-12-08T23:36:52;3.6;99.9
53675;DHT22;39574;50.534;8.500;2022-12-08T23:41:54;3.6;99.9
53675;DHT22;39574;50.534;8.500;2022-12-08T23:51:19;3.5;99.9
53675;DHT22;39574;50.534;8.500;2022-12-08T23:56:31;3.6;99.9
